createdAt,value
2016-06-14T00:00:16.100Z,15.84
2016-06-14T00:01:16.104Z,15.75
2016-06-14T00:02:16.107Z,15.72
2016-06-14T00:03:15.968Z,15.76
2016-06-14T00:04:16.097Z,15.75
2016-06-14T00:05:16.130Z,15.76
2016-06-14T00:06:16.103Z,15.75
2016-06-14T00:07:16.122Z,15.76
2016-06-14T00:08:16.140Z,15.75
2016-06-14T00:09:16.128Z,15.73
2016-06-14T00:10:16.115Z,15.73
2016-06-14T00:11:16.118Z,15.75
2016-06-14T00:12:16.107Z,15.68
2016-06-14T00:13:16.109Z,15.73
2016-06-14T00:14:16.205Z,15.77
2016-06-14T00:15:16.116Z,15.8
2016-06-14T00:16:16.118Z,15.73
2016-06-14T00:17:16.122Z,15.76
2016-06-14T00:18:16.125Z,15.7
2016-06-14T00:19:16.128Z,15.79
2016-06-14T00:20:16.131Z,15.73
2016-06-14T00:21:16.118Z,15.7
2016-06-14T00:22:16.121Z,15.68
2016-06-14T00:23:16.140Z,15.76
2016-06-14T00:24:16.127Z,15.64
2016-06-14T00:25:16.146Z,15.7
2016-06-14T00:26:16.133Z,15.65
2016-06-14T00:27:16.136Z,15.61
2016-06-14T00:28:16.155Z,15.62
2016-06-14T00:29:16.721Z,15.7
2016-06-14T00:30:16.942Z,15.75
2016-06-14T00:31:16.148Z,15.64
2016-06-14T00:32:16.136Z,15.67
2016-06-14T00:33:16.139Z,15.61
2016-06-14T00:34:15.985Z,15.67
2016-06-14T00:35:16.161Z,15.61
2016-06-14T00:36:16.148Z,15.61
2016-06-14T00:37:16.136Z,15.61
2016-06-14T00:38:16.154Z,15.59
2016-06-14T00:39:16.157Z,15.55
2016-06-14T00:40:16.161Z,15.52
2016-06-14T00:41:16.163Z,15.58
2016-06-14T00:42:16.182Z,15.54
2016-06-14T00:43:16.170Z,15.59
2016-06-14T00:44:16.658Z,15.61
2016-06-14T00:45:16.503Z,15.57
2016-06-14T00:46:16.179Z,15.57
2016-06-14T00:47:16.181Z,15.49
2016-06-14T00:48:16.201Z,15.58
2016-06-14T00:49:16.173Z,15.42
2016-06-14T00:50:16.176Z,15.54
2016-06-14T00:51:16.179Z,15.4
2016-06-14T00:52:16.150Z,15.43
2016-06-14T00:53:16.185Z,15.47
2016-06-14T00:54:16.189Z,15.44
2016-06-14T00:55:16.175Z,15.4
2016-06-14T00:56:16.226Z,15.44
2016-06-14T00:57:16.198Z,15.42
2016-06-14T00:58:16.184Z,15.46
2016-06-14T00:59:16.813Z,15.44
2016-06-14T01:00:16.285Z,15.39
2016-06-14T01:01:16.194Z,15.4
2016-06-14T01:02:16.197Z,15.44
2016-06-14T01:03:16.216Z,15.4
2016-06-14T01:04:16.062Z,15.44
2016-06-14T01:05:16.191Z,15.44
2016-06-14T01:06:16.193Z,15.42
2016-06-14T01:07:16.197Z,15.43
2016-06-14T01:08:16.043Z,15.42
2016-06-14T01:09:16.218Z,15.46
2016-06-14T01:10:16.222Z,15.47
2016-06-14T01:11:16.194Z,15.47
2016-06-14T01:12:16.196Z,15.42
2016-06-14T01:13:16.215Z,15.42
2016-06-14T01:14:16.218Z,15.46
2016-06-14T01:15:16.237Z,15.47
2016-06-14T01:16:16.223Z,15.42
2016-06-14T01:17:16.212Z,15.46
2016-06-14T01:18:16.216Z,15.46
2016-06-14T01:19:16.218Z,15.37
2016-06-14T01:20:16.205Z,15.37
2016-06-14T01:21:16.239Z,15.43
2016-06-14T01:22:16.212Z,15.43
2016-06-14T01:23:16.245Z,15.35
2016-06-14T01:24:16.264Z,15.33
2016-06-14T01:25:16.237Z,15.4
2016-06-14T01:26:16.240Z,15.25
2016-06-14T01:27:16.274Z,15.37
2016-06-14T01:28:16.261Z,15.37
2016-06-14T01:29:16.233Z,15.4
2016-06-14T01:30:16.299Z,15.28
2016-06-14T01:31:16.130Z,15.25
2016-06-14T01:32:16.227Z,15.25
2016-06-14T01:33:16.245Z,15.31
2016-06-14T01:34:16.248Z,15.29
2016-06-14T01:35:16.267Z,15.29
2016-06-14T01:36:16.255Z,15.22
2016-06-14T01:37:16.242Z,15.27
2016-06-14T01:38:16.229Z,15.24
2016-06-14T01:39:16.280Z,15.27
2016-06-14T01:40:16.252Z,15.25
2016-06-14T01:41:16.113Z,15.25
2016-06-14T01:42:16.273Z,15.24
2016-06-14T01:43:16.261Z,15.36
2016-06-14T01:44:16.248Z,15.29
2016-06-14T01:45:17.142Z,15.35
2016-06-14T01:46:16.270Z,15.37
2016-06-14T01:47:16.258Z,15.37
2016-06-14T01:48:16.291Z,15.39
2016-06-14T01:49:16.294Z,15.43
2016-06-14T01:50:16.266Z,15.4
2016-06-14T01:51:16.286Z,15.37
2016-06-14T01:52:16.303Z,15.35
2016-06-14T01:53:16.276Z,15.33
2016-06-14T01:54:16.294Z,15.33
2016-06-14T01:55:16.282Z,15.36
2016-06-14T01:56:16.301Z,15.35
2016-06-14T01:57:16.288Z,15.36
2016-06-14T01:58:16.275Z,15.43
2016-06-14T01:59:16.294Z,15.39
2016-06-14T02:00:17.078Z,15.43
2016-06-14T02:01:16.284Z,15.39
2016-06-14T02:02:16.287Z,15.46
2016-06-14T02:03:16.150Z,15.49
2016-06-14T02:04:16.294Z,15.42
2016-06-14T02:05:16.296Z,15.52
2016-06-14T02:06:16.285Z,15.44
2016-06-14T02:07:16.288Z,15.44
2016-06-14T02:08:16.306Z,15.47
2016-06-14T02:09:16.294Z,15.55
2016-06-14T02:10:16.328Z,15.54
2016-06-14T02:11:16.143Z,15.57
2016-06-14T02:12:16.334Z,15.52
2016-06-14T02:13:16.337Z,15.54
2016-06-14T02:14:16.294Z,15.55
2016-06-14T02:15:16.843Z,15.57
2016-06-14T02:16:16.315Z,15.54
2016-06-14T02:17:16.333Z,15.52
2016-06-14T02:18:16.322Z,15.51
2016-06-14T02:19:16.308Z,15.55
2016-06-14T02:20:16.311Z,15.55
2016-06-14T02:21:16.331Z,15.54
2016-06-14T02:22:16.333Z,15.55
2016-06-14T02:23:16.337Z,15.55
2016-06-14T02:24:16.387Z,15.51
2016-06-14T02:25:16.311Z,15.46
2016-06-14T02:26:16.330Z,15.57
2016-06-14T02:27:16.333Z,15.57
2016-06-14T02:28:16.367Z,15.61
2016-06-14T02:29:16.355Z,15.59
2016-06-14T02:30:16.795Z,15.55
2016-06-14T02:31:16.361Z,15.57
2016-06-14T02:32:16.348Z,15.52
2016-06-14T02:33:16.351Z,15.61
2016-06-14T02:34:16.339Z,15.67
2016-06-14T02:35:16.421Z,15.61
2016-06-14T02:36:16.423Z,15.61
2016-06-14T02:37:16.348Z,15.62
2016-06-14T02:38:16.367Z,15.52
2016-06-14T02:39:16.214Z,15.55
2016-06-14T02:40:16.373Z,15.58
2016-06-14T02:41:16.360Z,15.57
2016-06-14T02:42:16.380Z,15.51
2016-06-14T02:43:16.382Z,15.58
2016-06-14T02:44:16.386Z,15.42
2016-06-14T02:45:16.405Z,15.42
2016-06-14T02:46:16.391Z,15.44
2016-06-14T02:47:16.239Z,15.47
2016-06-14T02:48:16.382Z,15.46
2016-06-14T02:49:16.370Z,15.42
2016-06-14T02:50:16.388Z,15.46
2016-06-14T02:51:16.376Z,15.46
2016-06-14T02:52:16.394Z,15.42
2016-06-14T02:53:16.366Z,15.52
2016-06-14T02:54:16.447Z,15.44
2016-06-14T02:55:16.497Z,15.44
2016-06-14T02:56:16.392Z,15.47
2016-06-14T02:57:16.394Z,15.42
2016-06-14T02:58:16.241Z,15.4
2016-06-14T02:59:16.401Z,15.47
2016-06-14T03:00:16.840Z,15.43
2016-06-14T03:01:16.407Z,15.39
2016-06-14T03:02:16.394Z,15.51
2016-06-14T03:03:16.444Z,15.4
2016-06-14T03:04:16.385Z,15.42
2016-06-14T03:05:16.309Z,15.49
2016-06-14T03:06:16.250Z,15.51
2016-06-14T03:07:16.410Z,15.54
2016-06-14T03:08:16.397Z,15.54
2016-06-14T03:09:16.243Z,15.49
2016-06-14T03:10:16.403Z,15.43
2016-06-14T03:11:16.390Z,15.46
2016-06-14T03:12:16.410Z,15.46
2016-06-14T03:13:16.444Z,15.47
2016-06-14T03:14:16.415Z,15.42
2016-06-14T03:15:16.418Z,15.42
2016-06-14T03:16:16.453Z,15.44
2016-06-14T03:17:16.425Z,15.46
2016-06-14T03:18:16.459Z,15.49
2016-06-14T03:19:16.431Z,15.58
2016-06-14T03:20:16.418Z,15.46
2016-06-14T03:21:16.483Z,15.54
2016-06-14T03:22:16.533Z,15.43
2016-06-14T03:23:16.271Z,15.42
2016-06-14T03:24:16.431Z,15.46
2016-06-14T03:25:16.433Z,15.52
2016-06-14T03:26:16.452Z,15.47
2016-06-14T03:27:16.456Z,15.51
2016-06-14T03:28:16.443Z,15.57
2016-06-14T03:29:16.445Z,15.54
2016-06-14T03:30:16.308Z,15.54
2016-06-14T03:31:16.435Z,15.59
2016-06-14T03:32:16.471Z,15.64
2016-06-14T03:33:16.458Z,15.62
2016-06-14T03:34:16.461Z,15.65
2016-06-14T03:35:16.464Z,15.61
2016-06-14T03:36:16.451Z,15.65
2016-06-14T03:37:16.298Z,15.73
2016-06-14T03:38:16.458Z,15.67
2016-06-14T03:39:16.477Z,15.73
2016-06-14T03:40:16.464Z,15.61
2016-06-14T03:41:16.466Z,15.62
2016-06-14T03:42:16.454Z,15.55
2016-06-14T03:43:16.473Z,15.59
2016-06-14T03:44:16.476Z,15.57
2016-06-14T03:45:16.854Z,15.59
2016-06-14T03:46:16.467Z,15.64
2016-06-14T03:47:16.485Z,15.68
2016-06-14T03:48:16.473Z,15.61
2016-06-14T03:49:16.476Z,15.68
2016-06-14T03:50:16.494Z,15.68
2016-06-14T03:51:16.497Z,15.65
2016-06-14T03:52:16.485Z,15.62
2016-06-14T03:53:16.472Z,15.61
2016-06-14T03:54:16.507Z,15.55
2016-06-14T03:55:16.542Z,15.65
2016-06-14T03:56:16.497Z,15.64
2016-06-14T03:57:16.501Z,15.67
2016-06-14T03:58:16.347Z,15.72
2016-06-14T03:59:16.507Z,15.67
2016-06-14T04:00:17.213Z,15.72
2016-06-14T04:01:16.513Z,15.67
2016-06-14T04:02:16.484Z,15.61
2016-06-14T04:03:16.503Z,15.64
2016-06-14T04:04:16.491Z,15.62
2016-06-14T04:05:16.525Z,15.61
2016-06-14T04:06:16.512Z,15.68
2016-06-14T04:07:16.578Z,15.68
2016-06-14T04:08:16.582Z,15.75
2016-06-14T04:09:16.522Z,15.65
2016-06-14T04:10:16.540Z,15.68
2016-06-14T04:11:16.528Z,15.7
2016-06-14T04:12:16.515Z,15.68
2016-06-14T04:13:16.518Z,15.76
2016-06-14T04:14:16.521Z,15.76
2016-06-14T04:15:16.571Z,15.75
2016-06-14T04:16:16.543Z,15.73
2016-06-14T04:17:16.530Z,15.82
2016-06-14T04:18:16.533Z,15.8
2016-06-14T04:19:16.537Z,15.84
2016-06-14T04:20:16.540Z,15.86
2016-06-14T04:21:16.386Z,15.82
2016-06-14T04:22:16.546Z,15.76
2016-06-14T04:23:16.548Z,15.83
2016-06-14T04:24:16.427Z,15.86
2016-06-14T04:25:16.587Z,15.88
2016-06-14T04:26:16.543Z,15.8
2016-06-14T04:27:16.577Z,15.91
2016-06-14T04:28:16.565Z,15.9
2016-06-14T04:29:16.396Z,15.95
2016-06-14T04:30:16.555Z,15.95
2016-06-14T04:31:16.543Z,16.04
2016-06-14T04:32:16.577Z,16.05
2016-06-14T04:33:16.595Z,16.16
2016-06-14T04:34:16.568Z,16.2
2016-06-14T04:35:16.571Z,16.36
2016-06-14T04:36:16.588Z,16.41
2016-06-14T04:37:16.576Z,16.58
2016-06-14T04:38:16.595Z,16.79
2016-06-14T04:39:16.598Z,17.01
2016-06-14T04:40:16.601Z,17.3
2016-06-14T04:41:16.448Z,17.56
2016-06-14T04:42:16.576Z,17.9
2016-06-14T04:43:16.595Z,18.22
2016-06-14T04:44:16.598Z,18.44
2016-06-14T04:45:16.491Z,18.83
2016-06-14T04:46:16.463Z,19.16
2016-06-14T04:47:16.592Z,19.47
2016-06-14T04:48:16.658Z,19.69
2016-06-14T04:49:16.644Z,19.94
2016-06-14T04:50:16.617Z,20.13
2016-06-14T04:51:16.635Z,20.19
2016-06-14T04:52:16.654Z,19.91
2016-06-14T04:53:16.641Z,19.82
2016-06-14T04:54:16.629Z,19.69
2016-06-14T04:55:16.647Z,19.66
2016-06-14T04:56:16.682Z,19.7
2016-06-14T04:57:16.670Z,19.91
2016-06-14T04:58:16.672Z,20.06
2016-06-14T04:59:16.659Z,20.14
2016-06-14T05:00:16.553Z,20.04
2016-06-14T05:01:16.698Z,20.02
2016-06-14T05:02:16.701Z,20.09
2016-06-14T05:03:16.704Z,20.03
2016-06-14T05:04:16.722Z,19.77
2016-06-14T05:05:16.725Z,19.74
2016-06-14T05:06:16.713Z,19.7
2016-06-14T05:07:16.716Z,19.51
2016-06-14T05:08:16.734Z,19.4
2016-06-14T05:09:16.753Z,19.36
2016-06-14T05:10:16.756Z,19.15
2016-06-14T05:11:16.729Z,19.15
2016-06-14T05:12:16.747Z,19
2016-06-14T05:13:16.750Z,18.84
2016-06-14T05:14:16.738Z,18.68
2016-06-14T05:15:16.788Z,18.6
2016-06-14T05:16:17.384Z,18.47
2016-06-14T05:17:16.809Z,18.37
2016-06-14T05:18:16.781Z,18.41
2016-06-14T05:19:16.800Z,18.37
2016-06-14T05:20:16.818Z,18.35
2016-06-14T05:21:16.806Z,18.41
2016-06-14T05:22:16.793Z,18.56
2016-06-14T05:23:16.796Z,18.55
2016-06-14T05:24:16.816Z,18.52
2016-06-14T05:25:16.803Z,18.7
2016-06-14T05:26:16.822Z,18.53
2016-06-14T05:27:16.824Z,18.65
2016-06-14T05:28:16.828Z,18.6
2016-06-14T05:29:16.659Z,18.65
2016-06-14T05:30:17.130Z,18.59
2016-06-14T05:31:17.164Z,18.71
2016-06-14T05:32:16.840Z,18.75
2016-06-14T05:33:16.889Z,18.84
2016-06-14T05:34:16.877Z,18.77
2016-06-14T05:35:16.708Z,18.96
2016-06-14T05:36:16.853Z,18.92
2016-06-14T05:37:16.698Z,18.93
2016-06-14T05:38:16.890Z,18.95
2016-06-14T05:39:16.876Z,19.04
2016-06-14T05:40:16.895Z,19.11
2016-06-14T05:41:16.899Z,19.15
2016-06-14T05:42:16.886Z,19.16
2016-06-14T05:43:16.920Z,19.14
2016-06-14T05:44:16.892Z,19.19
2016-06-14T05:45:16.926Z,19.15
2016-06-14T05:46:16.898Z,19.14
2016-06-14T05:47:16.917Z,19.19
2016-06-14T05:48:16.904Z,19.07
2016-06-14T05:49:16.924Z,18.92
2016-06-14T05:50:16.910Z,18.84
2016-06-14T05:51:16.945Z,18.83
2016-06-14T05:52:16.761Z,18.92
2016-06-14T05:53:16.936Z,19.07
2016-06-14T05:54:16.938Z,19.39
2016-06-14T05:55:16.942Z,19.82
2016-06-14T05:56:16.976Z,20.26
2016-06-14T05:57:16.979Z,20.56
2016-06-14T05:58:17.013Z,20.95
2016-06-14T05:59:16.969Z,21.43
2016-06-14T06:00:16.988Z,21.6
2016-06-14T06:01:16.819Z,21.91
2016-06-14T06:02:16.994Z,22.29
2016-06-14T06:03:17.014Z,22.78
2016-06-14T06:04:16.985Z,23.23
2016-06-14T06:05:17.019Z,23.65
2016-06-14T06:06:17.038Z,23.77
2016-06-14T06:07:17.010Z,24.06
2016-06-14T06:08:17.029Z,24.3
2016-06-14T06:09:17.032Z,24.39
2016-06-14T06:10:17.019Z,24.35
2016-06-14T06:11:17.053Z,24.51
2016-06-14T06:12:17.056Z,24.7
2016-06-14T06:13:17.056Z,24.66
2016-06-14T06:14:17.075Z,24.89
2016-06-14T06:15:17.062Z,25.16
2016-06-14T06:16:17.476Z,25.43
2016-06-14T06:17:17.085Z,25.77
2016-06-14T06:18:17.087Z,25.5
2016-06-14T06:19:17.107Z,25.31
2016-06-14T06:20:17.124Z,25.18
2016-06-14T06:21:17.143Z,25.06
2016-06-14T06:22:17.178Z,25.13
2016-06-14T06:23:17.165Z,25.25
2016-06-14T06:24:17.153Z,25.8
2016-06-14T06:25:17.000Z,26.15
2016-06-14T06:26:17.190Z,26.05
2016-06-14T06:27:17.177Z,25.81
2016-06-14T06:28:17.212Z,25.29
2016-06-14T06:29:17.247Z,24.93
2016-06-14T06:30:17.218Z,24.65
2016-06-14T06:31:17.565Z,24.69
2016-06-14T06:32:17.209Z,24.93
2016-06-14T06:33:17.259Z,25.13
2016-06-14T06:34:17.231Z,25.22
2016-06-14T06:35:17.265Z,25.16
2016-06-14T06:36:17.127Z,25.14
2016-06-14T06:37:17.302Z,25.13
2016-06-14T06:38:17.290Z,25.03
2016-06-14T06:39:17.308Z,24.69
2016-06-14T06:40:17.296Z,24.38
2016-06-14T06:41:17.330Z,23.98
2016-06-14T06:42:17.302Z,23.76
2016-06-14T06:43:17.321Z,23.56
2016-06-14T06:44:17.308Z,23.4
2016-06-14T06:45:17.357Z,23.08
2016-06-14T06:46:17.746Z,22.7
2016-06-14T06:47:17.414Z,22.1
2016-06-14T06:48:17.487Z,21.58
2016-06-14T06:49:17.529Z,21.45
2016-06-14T06:50:17.556Z,21.3
2016-06-14T06:51:17.614Z,21.11
2016-06-14T06:52:17.614Z,20.75
2016-06-14T06:53:17.710Z,20.65
2016-06-14T06:54:17.680Z,20.65
2016-06-14T06:55:17.713Z,20.78
2016-06-14T06:56:17.709Z,20.96
2016-06-14T06:57:17.733Z,21
2016-06-14T06:58:17.740Z,20.99
2016-06-14T06:59:17.733Z,21.15
2016-06-14T07:00:17.601Z,21.3
2016-06-14T07:01:17.747Z,21.46
2016-06-14T07:02:17.752Z,21.61
2016-06-14T07:03:17.789Z,22.04
2016-06-14T07:04:17.777Z,22.66
2016-06-14T07:05:17.830Z,23.18
2016-06-14T07:06:17.770Z,23.44
2016-06-14T07:07:17.790Z,23.46
2016-06-14T07:08:17.810Z,23.37
2016-06-14T07:09:17.798Z,23.41
2016-06-14T07:10:17.816Z,23.66
2016-06-14T07:11:17.866Z,23.78
2016-06-14T07:12:17.855Z,23.62
2016-06-14T07:13:17.686Z,23.62
2016-06-14T07:14:17.861Z,23.43
2016-06-14T07:15:17.880Z,23.31
2016-06-14T07:16:18.743Z,22.96
2016-06-14T07:17:17.886Z,22.8
2016-06-14T07:18:17.905Z,22.62
2016-06-14T07:19:17.924Z,22.47
2016-06-14T07:20:17.896Z,22.07
2016-06-14T07:21:17.898Z,21.76
2016-06-14T07:22:17.949Z,21.52
2016-06-14T07:23:17.937Z,21.39
2016-06-14T07:24:17.768Z,21.21
2016-06-14T07:25:17.943Z,21.12
2016-06-14T07:26:17.930Z,20.95
2016-06-14T07:27:17.949Z,20.74
2016-06-14T07:28:17.967Z,20.62
2016-06-14T07:29:17.955Z,20.52
2016-06-14T07:30:17.973Z,20.56
2016-06-14T07:31:18.367Z,20.47
2016-06-14T07:32:17.979Z,20.52
2016-06-14T07:33:18.015Z,20.78
2016-06-14T07:34:18.018Z,21.05
2016-06-14T07:35:17.988Z,21.45
2016-06-14T07:36:17.992Z,21.8
2016-06-14T07:37:18.011Z,22.45
2016-06-14T07:38:18.029Z,22.8
2016-06-14T07:39:18.016Z,23.48
2016-06-14T07:40:18.020Z,23.91
2016-06-14T07:41:18.039Z,24.01
2016-06-14T07:42:18.026Z,23.76
2016-06-14T07:43:17.888Z,23.78
2016-06-14T07:44:18.094Z,24.03
2016-06-14T07:45:18.051Z,24.68
2016-06-14T07:46:18.273Z,25.13
2016-06-14T07:47:18.135Z,25.44
2016-06-14T07:48:18.091Z,25.33
2016-06-14T07:49:18.110Z,24.81
2016-06-14T07:50:18.129Z,24.5
2016-06-14T07:51:18.084Z,24.24
2016-06-14T07:52:18.119Z,24.33
2016-06-14T07:53:18.122Z,24.43
2016-06-14T07:54:18.125Z,24.47
2016-06-14T07:55:18.113Z,24.51
2016-06-14T07:56:17.975Z,24.26
2016-06-14T07:57:18.009Z,24.3
2016-06-14T07:58:18.170Z,24.21
2016-06-14T07:59:18.015Z,23.98
2016-06-14T08:00:18.175Z,23.77
2016-06-14T08:01:18.194Z,23.56
2016-06-14T08:02:18.212Z,23.46
2016-06-14T08:03:18.232Z,23.27
2016-06-14T08:04:18.172Z,23.17
2016-06-14T08:05:18.206Z,23.06
2016-06-14T08:06:18.225Z,22.9
2016-06-14T08:07:18.227Z,22.85
2016-06-14T08:08:18.215Z,22.73
2016-06-14T08:09:18.218Z,22.68
2016-06-14T08:10:18.268Z,22.57
2016-06-14T08:11:18.271Z,22.57
2016-06-14T08:12:18.260Z,22.47
2016-06-14T08:13:18.277Z,22.32
2016-06-14T08:14:18.280Z,22.32
2016-06-14T08:15:18.283Z,22.3
2016-06-14T08:16:18.428Z,22.18
2016-06-14T08:17:18.305Z,22.22
2016-06-14T08:18:18.292Z,22.18
2016-06-14T08:19:18.140Z,22.17
2016-06-14T08:20:18.299Z,22.1
2016-06-14T08:21:18.318Z,22.07
2016-06-14T08:22:18.305Z,22.02
2016-06-14T08:23:18.308Z,21.91
2016-06-14T08:24:18.327Z,21.98
2016-06-14T08:25:18.362Z,21.88
2016-06-14T08:26:18.364Z,21.8
2016-06-14T08:27:18.351Z,21.64
2016-06-14T08:28:18.354Z,21.66
2016-06-14T08:29:18.202Z,21.67
2016-06-14T08:30:18.361Z,21.57
2016-06-14T08:31:18.520Z,21.58
2016-06-14T08:32:18.383Z,21.5
2016-06-14T08:33:18.402Z,21.46
2016-06-14T08:34:18.388Z,21.51
2016-06-14T08:35:18.408Z,21.39
2016-06-14T08:36:18.379Z,21.4
2016-06-14T08:37:18.414Z,21.33
2016-06-14T08:38:18.448Z,21.21
2016-06-14T08:39:18.388Z,21.14
2016-06-14T08:40:18.423Z,21.09
2016-06-14T08:41:18.457Z,21.09
2016-06-14T08:42:18.445Z,21.05
2016-06-14T08:43:18.464Z,20.88
2016-06-14T08:44:18.466Z,20.95
2016-06-14T08:45:18.454Z,20.82
2016-06-14T08:46:18.456Z,20.88
2016-06-14T08:47:18.460Z,20.9
2016-06-14T08:48:18.495Z,21.02
2016-06-14T08:49:18.466Z,21.2
2016-06-14T08:50:18.485Z,21.51
2016-06-14T08:51:18.489Z,21.75
2016-06-14T08:52:18.475Z,22.06
2016-06-14T08:53:18.556Z,22.47
2016-06-14T08:54:18.528Z,23.12
2016-06-14T08:55:18.485Z,23.5
2016-06-14T08:56:18.519Z,23.59
2016-06-14T08:57:18.538Z,23.63
2016-06-14T08:58:18.526Z,23.65
2016-06-14T08:59:18.528Z,23.4
2016-06-14T09:00:18.532Z,23.36
2016-06-14T09:01:18.581Z,23.1
2016-06-14T09:02:18.569Z,23.06
2016-06-14T09:03:18.541Z,22.69
2016-06-14T09:04:18.559Z,22.55
2016-06-14T09:05:18.578Z,22.25
2016-06-14T09:06:18.581Z,21.96
2016-06-14T09:07:18.412Z,21.92
2016-06-14T09:08:18.588Z,21.72
2016-06-14T09:09:18.591Z,21.62
2016-06-14T09:10:18.624Z,21.5
2016-06-14T09:11:18.596Z,21.37
2016-06-14T09:12:18.630Z,21.35
2016-06-14T09:13:18.618Z,21.25
2016-06-14T09:14:18.606Z,21.21
2016-06-14T09:15:18.624Z,21.24
2016-06-14T09:16:19.315Z,21.3
2016-06-14T09:17:18.662Z,21.36
2016-06-14T09:18:18.649Z,21.51
2016-06-14T09:19:18.652Z,21.67
2016-06-14T09:20:18.686Z,21.88
2016-06-14T09:21:18.675Z,22.1
2016-06-14T09:22:18.661Z,22.1
2016-06-14T09:23:18.665Z,22.08
2016-06-14T09:24:18.652Z,22.1
2016-06-14T09:25:18.671Z,22.06
2016-06-14T09:26:18.690Z,22.04
2016-06-14T09:27:18.708Z,22.13
2016-06-14T09:28:18.711Z,22.23
2016-06-14T09:29:18.714Z,22.23
2016-06-14T09:30:18.717Z,22.2
2016-06-14T09:31:18.720Z,22.18
2016-06-14T09:32:18.770Z,22.2
2016-06-14T09:33:18.726Z,22.14
2016-06-14T09:34:18.746Z,22.08
2016-06-14T09:35:18.732Z,21.99
2016-06-14T09:36:18.751Z,21.93
2016-06-14T09:37:18.755Z,21.88
2016-06-14T09:38:18.758Z,21.92
2016-06-14T09:39:18.761Z,21.88
2016-06-14T09:40:18.764Z,21.91
2016-06-14T09:41:18.766Z,21.92
2016-06-14T09:42:18.770Z,21.91
2016-06-14T09:43:18.789Z,21.75
2016-06-14T09:44:18.776Z,21.73
2016-06-14T09:45:18.796Z,21.82
2016-06-14T09:46:19.376Z,21.91
2016-06-14T09:47:18.817Z,22.13
2016-06-14T09:48:18.819Z,22.3
2016-06-14T09:49:18.822Z,22.51
2016-06-14T09:50:18.842Z,22.68
2016-06-14T09:51:18.828Z,22.81
2016-06-14T09:52:18.848Z,22.83
2016-06-14T09:53:18.850Z,22.88
2016-06-14T09:54:18.838Z,22.78
2016-06-14T09:55:18.872Z,22.66
2016-06-14T09:56:18.860Z,22.62
2016-06-14T09:57:18.863Z,22.44
2016-06-14T09:58:18.866Z,22.29
2016-06-14T09:59:18.884Z,22.44
2016-06-14T10:00:18.903Z,22.51
2016-06-14T10:01:18.984Z,22.44
2016-06-14T10:02:18.879Z,22.36
2016-06-14T10:03:18.897Z,22.38
2016-06-14T10:04:18.931Z,22.5
2016-06-14T10:05:18.903Z,22.65
2016-06-14T10:06:18.906Z,22.78
2016-06-14T10:07:18.956Z,22.99
2016-06-14T10:08:18.991Z,22.84
2016-06-14T10:09:18.962Z,22.88
2016-06-14T10:10:18.934Z,22.88
2016-06-14T10:11:18.968Z,23
2016-06-14T10:12:18.956Z,23.15
2016-06-14T10:13:18.959Z,23.43
2016-06-14T10:14:18.821Z,23.47
2016-06-14T10:15:18.965Z,23.69
2016-06-14T10:16:19.749Z,23.68
2016-06-14T10:17:19.221Z,23.74
2016-06-14T10:18:18.834Z,23.78
2016-06-14T10:19:19.025Z,23.69
2016-06-14T10:20:19.042Z,23.5
2016-06-14T10:21:19.015Z,23.41
2016-06-14T10:22:19.018Z,23.41
2016-06-14T10:23:19.052Z,23.5
2016-06-14T10:24:19.040Z,23.47
2016-06-14T10:25:18.918Z,23.47
2016-06-14T10:26:19.061Z,23.58
2016-06-14T10:27:19.095Z,23.58
2016-06-14T10:28:19.068Z,23.47
2016-06-14T10:29:19.070Z,23.56
2016-06-14T10:30:19.073Z,23.63
2016-06-14T10:31:19.076Z,23.71
2016-06-14T10:32:19.095Z,23.78
2016-06-14T10:33:19.114Z,23.8
2016-06-14T10:34:19.133Z,23.8
2016-06-14T10:35:19.135Z,23.69
2016-06-14T10:36:18.967Z,23.58
2016-06-14T10:37:19.126Z,23.37
2016-06-14T10:38:19.161Z,23.37
2016-06-14T10:39:19.132Z,23.34
2016-06-14T10:40:19.152Z,23.46
2016-06-14T10:41:19.170Z,23.58
2016-06-14T10:42:19.016Z,23.62
2016-06-14T10:43:19.066Z,23.62
2016-06-14T10:44:19.164Z,23.62
2016-06-14T10:45:19.214Z,23.54
2016-06-14T10:46:19.903Z,23.41
2016-06-14T10:47:20.845Z,23.54
2016-06-14T10:48:19.238Z,23.66
2016-06-14T10:49:19.209Z,23.69
2016-06-14T10:50:19.229Z,23.66
2016-06-14T10:51:19.232Z,23.78
2016-06-14T10:52:19.094Z,23.81
2016-06-14T10:53:19.097Z,23.84
2016-06-14T10:54:19.258Z,23.87
2016-06-14T10:55:19.260Z,23.95
2016-06-14T10:56:19.263Z,23.99
2016-06-14T10:57:19.282Z,23.96
2016-06-14T10:58:19.269Z,23.95
2016-06-14T10:59:19.303Z,23.74
2016-06-14T11:00:19.306Z,23.62
2016-06-14T11:01:19.341Z,23.48
2016-06-14T11:02:19.313Z,23.34
2016-06-14T11:03:19.316Z,23.15
2016-06-14T11:04:19.319Z,23.2
2016-06-14T11:05:19.337Z,22.94
2016-06-14T11:06:19.340Z,22.76
2016-06-14T11:07:19.359Z,22.75
2016-06-14T11:08:19.346Z,22.66
2016-06-14T11:09:19.365Z,22.66
2016-06-14T11:10:19.352Z,22.55
2016-06-14T11:11:19.199Z,22.55
2016-06-14T11:12:19.374Z,22.51
2016-06-14T11:13:19.377Z,22.5
2016-06-14T11:14:19.364Z,22.57
2016-06-14T11:15:19.400Z,22.62
2016-06-14T11:16:19.418Z,22.54
2016-06-14T11:17:19.717Z,22.47
2016-06-14T11:18:19.424Z,22.53
2016-06-14T11:19:19.443Z,22.47
2016-06-14T11:20:19.415Z,22.45
2016-06-14T11:21:19.419Z,22.35
2016-06-14T11:22:19.436Z,22.36
2016-06-14T11:23:19.456Z,22.36
2016-06-14T11:24:19.475Z,22.33
2016-06-14T11:25:19.477Z,22.35
2016-06-14T11:26:19.481Z,22.35
2016-06-14T11:27:19.468Z,22.48
2016-06-14T11:28:19.486Z,22.51
2016-06-14T11:29:19.474Z,22.5
2016-06-14T11:30:19.477Z,22.51
2016-06-14T11:31:19.496Z,22.54
2016-06-14T11:32:20.077Z,22.57
2016-06-14T11:33:19.517Z,22.57
2016-06-14T11:34:19.364Z,22.48
2016-06-14T11:35:19.508Z,22.43
2016-06-14T11:36:19.511Z,22.29
2016-06-14T11:37:19.546Z,22
2016-06-14T11:38:19.549Z,21.99
2016-06-14T11:39:19.552Z,21.89
2016-06-14T11:40:19.555Z,21.91
2016-06-14T11:41:19.572Z,21.91
2016-06-14T11:42:19.576Z,21.89
2016-06-14T11:43:19.595Z,21.98
2016-06-14T11:44:19.551Z,21.92
2016-06-14T11:45:19.570Z,21.92
2016-06-14T11:46:19.588Z,21.91
2016-06-14T11:47:21.185Z,21.88
2016-06-14T11:48:19.610Z,21.95
2016-06-14T11:49:19.441Z,21.93
2016-06-14T11:50:19.601Z,21.8
2016-06-14T11:51:19.604Z,21.7
2016-06-14T11:52:19.467Z,21.61
2016-06-14T11:53:19.610Z,21.64
2016-06-14T11:54:19.628Z,21.55
2016-06-14T11:55:19.632Z,21.55
2016-06-14T11:56:19.651Z,21.64
2016-06-14T11:57:19.637Z,21.55
2016-06-14T11:58:19.672Z,21.57
2016-06-14T11:59:19.644Z,21.51
2016-06-14T12:00:19.663Z,21.5
2016-06-14T12:01:19.556Z,21.46
2016-06-14T12:02:19.669Z,21.24
2016-06-14T12:03:19.673Z,21.09
2016-06-14T12:04:19.660Z,20.9
2016-06-14T12:05:19.679Z,20.84
2016-06-14T12:06:19.665Z,20.85
2016-06-14T12:07:19.684Z,20.75
2016-06-14T12:08:19.688Z,20.65
2016-06-14T12:09:19.675Z,20.5
2016-06-14T12:10:19.709Z,20.4
2016-06-14T12:11:19.697Z,20.37
2016-06-14T12:12:19.700Z,20.36
2016-06-14T12:13:19.718Z,20.31
2016-06-14T12:14:19.737Z,20.26
2016-06-14T12:15:19.741Z,20.29
2016-06-14T12:16:19.743Z,20.28
2016-06-14T12:17:20.559Z,20.16
2016-06-14T12:18:19.733Z,19.96
2016-06-14T12:19:19.737Z,19.92
2016-06-14T12:20:19.739Z,19.86
2016-06-14T12:21:19.775Z,19.7
2016-06-14T12:22:19.762Z,19.55
2016-06-14T12:23:19.765Z,19.24
2016-06-14T12:24:19.783Z,18.99
2016-06-14T12:25:19.771Z,18.78
2016-06-14T12:26:19.806Z,18.6
2016-06-14T12:27:19.793Z,18.55
2016-06-14T12:28:19.780Z,18.44
2016-06-14T12:29:19.799Z,18.38
2016-06-14T12:30:19.802Z,18.29
2016-06-14T12:31:19.789Z,18.31
2016-06-14T12:32:20.011Z,18.23
2016-06-14T12:33:19.812Z,18.2
2016-06-14T12:34:19.799Z,18.2
2016-06-14T12:35:19.802Z,18.2
2016-06-14T12:36:19.821Z,18.33
2016-06-14T12:37:19.824Z,18.35
2016-06-14T12:38:19.843Z,18.44
2016-06-14T12:39:19.814Z,18.63
2016-06-14T12:40:19.833Z,18.62
2016-06-14T12:41:19.837Z,18.8
2016-06-14T12:42:19.823Z,18.84
2016-06-14T12:43:19.826Z,19.07
2016-06-14T12:44:19.846Z,19.12
2016-06-14T12:45:19.833Z,19.24
2016-06-14T12:46:19.836Z,19.39
2016-06-14T12:47:19.730Z,19.26
2016-06-14T12:48:19.873Z,19.41
2016-06-14T12:49:19.846Z,19.39
2016-06-14T12:50:19.864Z,19.49
2016-06-14T12:51:19.883Z,19.54
2016-06-14T12:52:19.885Z,19.58
2016-06-14T12:53:19.919Z,19.76
2016-06-14T12:54:19.907Z,19.74
2016-06-14T12:55:19.895Z,19.74